DLH4559 EDDS-EDDB
Flight info
| Callsign | DLH4559 |
|---|---|
| Flight time | N/A |
| Altitude | 33000 |
| Route | OKIBA4H OKIBA N851 RIMKI Z99 LOHRE N746 TIKNI T279 TAMEB T278 KLF |
| Aircraft | A320/M-SDE3FGHIRWY/LB1 |
Departure
| Time | 2026-04-30 18:28 |
|---|---|
| Airport | Stuttgart Airport (EDDS) |
Arrival
| Time | N/A |
|---|---|
| Airport | Berlin Brandenburg Airport (EDDB) |
| Time | Latitude | Longitude | Altitude | Speed | Heading |
|---|---|---|---|---|---|
| 2026-04-30 18:10 | 48.68911 | 9.19514 | 1286 ft | 0 kts | 343° |
| 2026-04-30 18:14 | 48.68910 | 9.19514 | 1285 ft | 0 kts | 343° |
| 2026-04-30 18:19 | 48.68902 | 9.19517 | 1291 ft | 2 kts | 343° |
| 2026-04-30 18:19 | 48.68897 | 9.19520 | 1291 ft | 0 kts | 343° |
| 2026-04-30 18:20 | 48.68889 | 9.19523 | 1286 ft | 2 kts | 343° |
| 2026-04-30 18:20 | 48.68873 | 9.19531 | 1290 ft | 2 kts | 343° |
| 2026-04-30 18:20 | 48.68857 | 9.19537 | 1289 ft | 2 kts | 17° |
| 2026-04-30 18:20 | 48.68841 | 9.19539 | 1288 ft | 2 kts | 326° |
| 2026-04-30 18:21 | 48.68827 | 9.19554 | 1291 ft | 2 kts | 349° |
| 2026-04-30 18:21 | 48.68818 | 9.19555 | 1291 ft | 0 kts | 22° |
| 2026-04-30 18:23 | 48.68821 | 9.19556 | 1291 ft | 3 kts | 16° |
| 2026-04-30 18:23 | 48.68832 | 9.19561 | 1285 ft | 0 kts | 22° |
| 2026-04-30 18:24 | 48.68833 | 9.19567 | 1289 ft | 1 kts | 55° |
| 2026-04-30 18:24 | 48.68834 | 9.19569 | 1289 ft | 0 kts | 59° |
| 2026-04-30 18:24 | 48.68834 | 9.19571 | 1289 ft | 0 kts | 59° |
| 2026-04-30 18:25 | 48.68838 | 9.19580 | 1288 ft | 11 kts | 59° |
| 2026-04-30 18:25 | 48.68873 | 9.19743 | 1285 ft | 17 kts | 73° |
| 2026-04-30 18:26 | 48.68749 | 9.19957 | 1285 ft | 16 kts | 162° |
| 2026-04-30 18:26 | 48.68678 | 9.19988 | 1285 ft | 0 kts | 163° |
| 2026-04-30 18:27 | 48.68630 | 9.20034 | 1288 ft | 22 kts | 128° |
| 2026-04-30 18:27 | 48.68622 | 9.20274 | 1288 ft | 38 kts | 74° |
| 2026-04-30 18:28 | 48.69000 | 9.22282 | 1288 ft | 152 kts | 73° |
| 2026-04-30 18:28 | 48.69327 | 9.23929 | 1614 ft | 167 kts | 76° |
| 2026-04-30 18:28 | 48.69939 | 9.27345 | 2712 ft | 177 kts | 76° |
| 2026-04-30 18:29 | 48.70289 | 9.29255 | 2881 ft | 198 kts | 76° |
| 2026-04-30 18:29 | 48.71578 | 9.36146 | 4571 ft | 243 kts | 76° |
| 2026-04-30 18:30 | 48.72540 | 9.41179 | 6254 ft | 253 kts | 76° |
| 2026-04-30 18:30 | 48.73544 | 9.46411 | 7852 ft | 263 kts | 75° |
| 2026-04-30 18:31 | 48.74152 | 9.49010 | 8650 ft | 268 kts | 62° |
| 2026-04-30 18:31 | 48.77128 | 9.52436 | 10262 ft | 286 kts | 15° |
| 2026-04-30 18:32 | 48.81423 | 9.52396 | 10837 ft | 334 kts | 358° |
| 2026-04-30 18:32 | 48.83822 | 9.52108 | 10995 ft | 356 kts | 358° |
| 2026-04-30 18:32 | 48.88853 | 9.51445 | 12161 ft | 369 kts | 358° |
| 2026-04-30 18:33 | 48.91431 | 9.51121 | 12846 ft | 372 kts | 359° |
| 2026-04-30 18:33 | 48.96584 | 9.49797 | 14219 ft | 383 kts | 343° |
| 2026-04-30 18:33 | 48.99041 | 9.48145 | 14819 ft | 389 kts | 337° |
| 2026-04-30 18:34 | 49.01484 | 9.46348 | 15422 ft | 391 kts | 337° |
| 2026-04-30 18:34 | 49.06428 | 9.42715 | 16624 ft | 397 kts | 338° |
| 2026-04-30 18:34 | 49.08925 | 9.40879 | 17224 ft | 400 kts | 338° |
| 2026-04-30 18:35 | 49.11419 | 9.39048 | 17818 ft | 402 kts | 338° |
| 2026-04-30 18:35 | 49.13979 | 9.37168 | 18401 ft | 406 kts | 338° |
| 2026-04-30 18:35 | 49.16497 | 9.35312 | 18933 ft | 408 kts | 338° |
| 2026-04-30 18:36 | 49.21762 | 9.32030 | 19882 ft | 409 kts | 349° |
| 2026-04-30 18:36 | 49.24561 | 9.31363 | 20349 ft | 407 kts | 359° |
| 2026-04-30 18:36 | 49.30251 | 9.30953 | 21288 ft | 411 kts | 0° |
| 2026-04-30 18:37 | 49.33120 | 9.30731 | 21745 ft | 413 kts | 0° |
| 2026-04-30 18:37 | 49.35997 | 9.30647 | 22178 ft | 413 kts | 6° |
| 2026-04-30 18:37 | 49.38828 | 9.31031 | 22583 ft | 415 kts | 8° |
| 2026-04-30 18:37 | 49.41709 | 9.31456 | 22980 ft | 417 kts | 8° |
| 2026-04-30 18:38 | 49.44619 | 9.31889 | 23380 ft | 420 kts | 8° |
| 2026-04-30 18:38 | 49.47542 | 9.32322 | 23765 ft | 422 kts | 8° |
| 2026-04-30 18:38 | 49.50482 | 9.32758 | 24106 ft | 424 kts | 8° |
| 2026-04-30 18:38 | 49.53386 | 9.33188 | 24433 ft | 426 kts | 8° |
| 2026-04-30 18:39 | 49.56344 | 9.33623 | 24755 ft | 428 kts | 8° |
| 2026-04-30 18:39 | 49.59318 | 9.34059 | 25076 ft | 429 kts | 8° |
| 2026-04-30 18:39 | 49.62304 | 9.34501 | 25381 ft | 431 kts | 8° |
| 2026-04-30 18:39 | 49.65292 | 9.34948 | 25693 ft | 432 kts | 8° |
| 2026-04-30 18:40 | 49.68303 | 9.35400 | 25996 ft | 434 kts | 8° |
| 2026-04-30 18:40 | 49.71314 | 9.35853 | 26276 ft | 436 kts | 8° |
| 2026-04-30 18:40 | 49.74341 | 9.36337 | 26559 ft | 436 kts | 11° |
| 2026-04-30 18:40 | 49.77256 | 9.37288 | 26830 ft | 435 kts | 17° |